Time;durP1;ratioP1;P1;durP2;ratioP2;P2;SDS_P1;SDS_P2;PMS_P1;PMS_P2;Temp;Humidity;BMP_temperature;BMP_pressure;BME280_temperature;BME280_humidity;BME280_pressure;Samples;Min_cycle;Max_cycle;Signal;HPM_P1;HPM_P2
2023/12/09 00:01:07;;;;;;;;;4.67;3.67;;;;;19.98;47.28;100967.88;4938482;28;45386;-71
2023/12/09 00:03:32;;;;;;;;;7.67;2.67;;;;;19.82;46.92;100945.75;4933404;28;45380;-72
2023/12/09 00:05:58;;;;;;;;;2.67;2.67;;;;;20.03;47.14;100982.25;4935941;28;46199;-69
2023/12/09 00:08:23;;;;;;;;;4.33;3.00;;;;;20.05;47.15;100984.72;4938731;28;45402;-69
2023/12/09 00:10:49;;;;;;;;;5.67;4.67;;;;;20.04;47.23;100977.78;4937837;28;45476;-69
2023/12/09 00:13:14;;;;;;;;;5.67;4.00;;;;;20.05;47.06;100979.44;4938621;28;45315;-70
2023/12/09 00:15:39;;;;;;;;;5.00;3.00;;;;;20.00;47.50;100968.53;4938063;28;47034;-71
2023/12/09 00:18:05;;;;;;;;;2.33;2.33;;;;;20.04;47.32;100981.25;4938511;28;45408;-74
2023/12/09 00:20:30;;;;;;;;;3.33;3.33;;;;;20.03;47.48;100982.25;4938523;28;45504;-73
2023/12/09 00:22:55;;;;;;;;;6.00;4.00;;;;;20.04;47.04;100989.19;4938584;28;50774;-70
2023/12/09 00:25:20;;;;;;;;;2.67;2.67;;;;;20.04;47.23;100988.34;4938747;28;45848;-70
2023/12/09 00:27:46;;;;;;;;;7.00;2.33;;;;;20.03;47.13;100989.34;4939094;28;45555;-70
2023/12/09 00:30:11;;;;;;;;;5.00;3.00;;;;;20.03;46.84;100986.72;4938811;28;45629;-70
2023/12/09 00:32:37;;;;;;;;;3.67;3.67;;;;;20.01;46.95;100976.28;4938344;28;45535;-70
2023/12/09 00:35:02;;;;;;;;;8.00;4.00;;;;;20.00;47.21;100979.13;4952874;28;62096;-70
2023/12/09 00:37:28;;;;;;;;;4.00;3.00;;;;;20.00;46.95;100987.03;4953429;28;45456;-70
2023/12/09 00:39:53;;;;;;;;;3.67;3.33;;;;;19.99;47.02;100977.44;4938505;28;49908;-70
2023/12/09 00:42:18;;;;;;;;;2.33;2.33;;;;;19.97;46.86;100972.34;4937924;28;63314;-70
2023/12/09 00:44:43;;;;;;;;;4.67;3.33;;;;;19.98;46.82;100965.25;4937892;28;45418;-70
2023/12/09 00:47:09;;;;;;;;;5.67;4.00;;;;;19.94;47.03;100962.09;4938026;28;45365;-70
2023/12/09 00:49:34;;;;;;;;;2.67;2.67;;;;;19.87;47.16;100946.09;4938693;28;45740;-69
2023/12/09 00:51:59;;;;;;;;;2.33;2.00;;;;;19.94;46.91;100960.28;4938469;28;45299;-70
2023/12/09 00:54:25;;;;;;;;;3.67;2.67;;;;;19.93;46.64;100966.53;4938372;28;46286;-70
2023/12/09 00:56:50;;;;;;;;;7.33;2.67;;;;;19.90;46.47;100960.78;4938169;28;45320;-70
2023/12/09 00:59:16;;;;;;;;;5.67;3.67;;;;;19.90;46.86;100969.53;4938456;28;45792;-70
2023/12/09 01:01:41;;;;;;;;;6.67;3.67;;;;;19.91;46.50;100965.06;4938137;28;45284;-70
2023/12/09 01:04:06;;;;;;;;;1.67;1.67;;;;;19.88;46.56;100957.47;4938052;28;45371;-70
2023/12/09 01:06:32;;;;;;;;;4.00;2.67;;;;;19.89;46.52;100949.38;4938338;28;45376;-70
2023/12/09 01:08:57;;;;;;;;;3.33;2.67;;;;;19.89;46.50;100946.75;4938033;28;45263;-70
2023/12/09 01:11:24;;;;;;;;;1.67;1.67;;;;;19.90;46.69;100944.94;4937029;28;45495;-70
2023/12/09 01:13:49;;;;;;;;;5.00;3.00;;;;;19.87;46.71;100939.97;4937959;28;46339;-70
2023/12/09 01:16:14;;;;;;;;;4.67;4.00;;;;;19.84;46.43;100946.41;4937271;28;58793;-70
2023/12/09 01:18:39;;;;;;;;;3.00;3.00;;;;;19.88;46.41;100939.00;4938067;28;45375;-69
2023/12/09 01:21:05;;;;;;;;;4.67;3.67;;;;;19.85;46.39;100930.41;4938115;28;45155;-70
2023/12/09 01:23:30;;;;;;;;;3.33;3.33;;;;;19.87;46.28;100921.50;4938004;28;45871;-69
2023/12/09 01:25:56;;;;;;;;;3.33;3.33;;;;;19.87;46.48;100921.50;4937854;28;45371;-70
2023/12/09 01:28:21;;;;;;;;;8.00;3.00;;;;;19.82;46.27;100914.91;4936911;28;45532;-70
2023/12/09 01:30:46;;;;;;;;;4.00;2.33;;;;;19.84;46.25;100923.47;4936993;28;61412;-70
2023/12/09 01:33:11;;;;;;;;;3.67;2.67;;;;;19.82;46.32;100920.19;4937642;28;47884;-70
2023/12/09 01:35:37;;;;;;;;;3.00;1.67;;;;;19.84;46.50;100920.84;4937861;28;45374;-70
2023/12/09 01:38:02;;;;;;;;;5.67;2.33;;;;;19.84;46.40;100904.16;4937884;28;45346;-70
2023/12/09 01:40:28;;;;;;;;;5.00;2.67;;;;;19.83;46.33;100903.34;4937661;28;45425;-70
2023/12/09 01:42:53;;;;;;;;;4.00;3.00;;;;;19.82;46.11;100890.31;4937638;28;45546;-70
2023/12/09 01:45:20;;;;;;;;;3.00;3.00;;;;;19.82;45.97;100899.06;4937220;28;45456;-70
2023/12/09 01:47:47;;;;;;;;;5.33;2.00;;;;;19.83;46.29;100899.88;4937885;28;45346;-69
2023/12/09 01:50:13;;;;;;;;;3.33;2.00;;;;;19.84;46.18;100885.69;4937556;28;45413;-69
2023/12/09 01:52:38;;;;;;;;;3.67;2.33;;;;;19.82;46.20;100883.22;4937207;28;47037;-70
2023/12/09 01:55:04;;;;;;;;;5.67;3.00;;;;;19.80;46.08;100871.16;4937299;28;45271;-70
2023/12/09 01:57:30;;;;;;;;;3.00;3.00;;;;;19.80;46.12;100882.53;4937620;28;45398;-70
2023/12/09 01:59:55;;;;;;;;;3.33;3.33;;;;;19.76;46.12;100864.56;4936971;28;45414;-70
2023/12/09 02:02:21;;;;;;;;;4.00;4.00;;;;;19.81;46.06;100871.00;4937355;28;45565;-70
2023/12/09 02:04:48;;;;;;;;;2.67;2.67;;;;;19.80;46.11;100856.13;4937466;28;45588;-70
2023/12/09 02:07:13;;;;;;;;;3.33;3.33;;;;;19.81;45.96;100849.03;4937539;28;45508;-70
2023/12/09 02:09:39;;;;;;;;;4.67;1.33;;;;;19.80;45.83;100850.06;4937376;28;45415;-70
2023/12/09 02:12:29;;;;;;;;;3.00;2.33;;;;;19.79;45.96;100843.94;4937160;28;47064;-70
2023/12/09 02:15:18;;;;;;;;;3.33;3.00;;;;;19.74;46.01;100835.69;4937364;28;45482;-70
2023/12/09 02:17:52;;;;;;;;;4.33;2.67;;;;;19.79;46.04;100841.28;4937361;28;45404;-70
2023/12/09 02:20:18;;;;;;;;;0.50;0.50;;;;;19.79;45.96;100843.94;4937141;28;45466;-70
2023/12/09 02:22:43;;;;;;;;;2.00;2.00;;;;;19.79;45.82;100836.03;4937074;28;46151;-70
2023/12/09 02:25:09;;;;;;;;;6.00;2.67;;;;;19.80;45.93;100834.22;4937254;28;45386;-69
2023/12/09 02:27:57;;;;;;;;;2.33;1.67;;;;;19.79;46.31;100828.09;4936917;28;45456;-70
2023/12/09 02:30:43;;;;;;;;;2.33;2.33;;;;;19.79;46.01;100830.75;4937130;28;45303;-70
2023/12/09 02:33:11;;;;;;;;;2.67;2.67;;;;;19.79;45.86;100832.53;4929575;28;47029;-69
2023/12/09 02:35:40;;;;;;;;;3.33;3.33;;;;;19.78;45.70;100823.78;4937066;28;45399;-69
2023/12/09 02:38:06;;;;;;;;;3.00;3.00;;;;;19.78;45.86;100820.31;4937161;28;45366;-69
2023/12/09 02:40:32;;;;;;;;;2.67;2.00;;;;;19.77;45.86;100806.31;4937006;28;45396;-69
2023/12/09 02:42:58;;;;;;;;;2.33;1.33;;;;;19.67;45.87;100774.78;4936548;28;45310;-70
2023/12/09 02:45:24;;;;;;;;;3.00;3.00;;;;;19.77;45.73;100781.72;4951698;28;45377;-70
2023/12/09 02:47:49;;;;;;;;;5.00;2.67;;;;;19.76;45.75;100772.16;4936970;28;45315;-70
2023/12/09 02:50:15;;;;;;;;;4.00;2.67;;;;;19.71;45.66;100760.28;4937065;28;45553;-69
2023/12/09 02:52:41;;;;;;;;;5.00;3.00;;;;;19.75;45.78;100760.75;4936710;28;45410;-69
2023/12/09 02:55:07;;;;;;;;;3.33;1.00;;;;;19.76;45.79;100758.94;4936615;28;45411;-70
2023/12/09 02:57:32;;;;;;;;;2.00;2.00;;;;;19.75;45.65;100750.19;4936519;28;45448;-70
2023/12/09 02:59:58;;;;;;;;;5.33;2.00;;;;;19.75;45.69;100752.03;4936650;28;45400;-70
2023/12/09 03:02:23;;;;;;;;;4.00;3.33;;;;;19.75;45.64;100758.13;4936591;28;46132;-70
2023/12/09 03:04:49;;;;;;;;;5.00;3.67;;;;;19.73;45.73;100739.81;4936540;28;45370;-70
2023/12/09 03:07:14;;;;;;;;;2.00;2.00;;;;;19.72;45.60;100743.44;4936721;28;45421;-70
2023/12/09 03:09:39;;;;;;;;;4.00;1.67;;;;;19.75;45.94;100738.84;4939053;28;45382;-70
2023/12/09 03:12:05;;;;;;;;;1.33;1.33;;;;;19.74;45.68;100740.66;4939468;28;49810;-70
2023/12/09 03:14:30;;;;;;;;;6.33;4.00;;;;;19.75;45.60;100738.84;4939820;28;45298;-69
2023/12/09 03:16:56;;;;;;;;;3.67;3.00;;;;;19.75;45.57;100723.81;4940155;28;45481;-69
2023/12/09 03:19:21;;;;;;;;;3.00;2.33;;;;;19.75;45.54;100723.81;4939919;28;45350;-70
2023/12/09 03:21:46;;;;;;;;;3.00;3.00;;;;;19.75;45.57;100712.44;4939451;28;55815;-70
2023/12/09 03:24:11;;;;;;;;;3.00;2.00;;;;;19.75;45.56;100710.59;4939811;28;45482;-69
2023/12/09 03:26:37;;;;;;;;;4.67;3.00;;;;;19.75;45.66;100700.03;4938191;28;45264;-69
2023/12/09 03:29:02;;;;;;;;;3.67;3.00;;;;;19.75;45.62;100692.13;4939810;28;45390;-69
2023/12/09 03:31:28;;;;;;;;;5.00;3.33;;;;;19.75;45.77;100684.19;4939654;28;46283;-69
2023/12/09 03:33:53;;;;;;;;;2.33;2.00;;;;;19.76;45.69;100685.88;4939560;28;45517;-69
2023/12/09 03:36:18;;;;;;;;;4.67;3.67;;;;;19.75;45.43;100678.13;4939925;28;45458;-70
2023/12/09 03:38:44;;;;;;;;;3.00;3.00;;;;;19.66;45.33;100664.13;4939714;28;45282;-69
2023/12/09 03:41:09;;;;;;;;;4.67;3.00;;;;;19.76;45.65;100671.84;4939233;28;46116;-69
2023/12/09 03:43:35;;;;;;;;;2.00;2.00;;;;;19.75;45.43;100671.00;4939445;28;45413;-70
2023/12/09 03:46:01;;;;;;;;;2.33;2.33;;;;;19.74;45.67;100669.38;4939582;28;45290;-69
2023/12/09 03:48:28;;;;;;;;;3.33;2.67;;;;;19.75;45.53;100665.72;4939522;28;45331;-70
2023/12/09 03:50:54;;;;;;;;;3.00;1.67;;;;;19.72;45.51;100661.59;4939161;28;46433;-69
2023/12/09 03:53:19;;;;;;;;;2.00;2.00;;;;;19.69;45.39;100658.50;4939108;28;45385;-69
2023/12/09 03:55:44;;;;;;;;;3.00;3.00;;;;;19.71;45.43;100654.69;4939029;28;45362;-69
2023/12/09 03:58:10;;;;;;;;;4.00;3.00;;;;;19.69;45.78;100650.59;4939243;28;45267;-70
2023/12/09 04:00:36;;;;;;;;;2.67;2.00;;;;;19.75;45.52;100651.72;4939169;28;46231;-70
2023/12/09 04:03:02;;;;;;;;;4.00;4.00;;;;;19.73;45.50;100646.59;4939304;28;45381;-69
2023/12/09 04:05:28;;;;;;;;;2.67;2.67;;;;;19.73;45.12;100638.69;4939119;28;45216;-69
2023/12/09 04:07:53;;;;;;;;;3.33;3.33;;;;;19.73;45.36;100636.88;4939177;28;45328;-70
2023/12/09 04:10:18;;;;;;;;;3.67;3.00;;;;;19.69;45.42;100632.09;4938376;28;57442;-70
2023/12/09 04:12:44;;;;;;;;;3.33;2.00;;;;;19.71;45.59;100627.47;4939030;28;46013;-70
2023/12/09 04:15:11;;;;;;;;;2.00;2.00;;;;;19.72;45.50;100611.44;4939438;28;45312;-70
2023/12/09 04:17:37;;;;;;;;;4.33;2.00;;;;;19.71;45.46;100611.63;4939116;28;45383;-70
2023/12/09 04:20:04;;;;;;;;;3.67;3.67;;;;;19.72;45.26;100606.19;4937693;28;45504;-70
2023/12/09 04:22:29;;;;;;;;;4.00;4.00;;;;;19.72;45.34;100608.81;4938954;28;45455;-69
2023/12/09 04:24:54;;;;;;;;;2.67;1.33;;;;;19.72;45.36;100622.00;4938509;28;45383;-70
2023/12/09 04:27:20;;;;;;;;;4.00;2.00;;;;;19.72;45.48;100600.09;4938328;28;58735;-70
2023/12/09 04:29:45;;;;;;;;;6.00;3.00;;;;;19.72;45.44;100592.97;4938663;28;46279;-70
2023/12/09 04:32:10;;;;;;;;;2.00;2.00;;;;;19.72;45.42;100582.41;4938382;28;55577;-69
2023/12/09 04:34:37;;;;;;;;;2.67;2.33;;;;;19.71;45.58;100572.88;4938885;28;45374;-69
2023/12/09 04:37:03;;;;;;;;;2.33;2.00;;;;;19.72;45.29;100566.56;4938910;28;45367;-70
2023/12/09 04:39:28;;;;;;;;;3.00;3.00;;;;;19.73;45.60;100565.59;4938312;28;46099;-69
2023/12/09 04:41:54;;;;;;;;;3.00;1.00;;;;;19.71;45.32;100543.84;4938713;28;45351;-70
2023/12/09 04:44:19;;;;;;;;;3.67;3.67;;;;;19.73;45.52;100543.66;4938899;28;45334;-69
2023/12/09 04:46:44;;;;;;;;;5.00;3.00;;;;;19.74;45.20;100540.03;4938881;28;45343;-69
2023/12/09 04:49:10;;;;;;;;;3.00;2.67;;;;;19.69;45.54;100518.59;4938717;28;46277;-69
2023/12/09 04:51:36;;;;;;;;;2.67;2.67;;;;;19.73;45.50;100517.25;4938512;28;45389;-70
2023/12/09 04:54:01;;;;;;;;;3.67;2.67;;;;;19.73;45.58;100510.16;4938011;28;45401;-69
2023/12/09 04:56:26;;;;;;;;;3.67;1.67;;;;;19.74;45.52;100516.28;4938582;28;45663;-69
2023/12/09 04:58:52;;;;;;;;;1.00;1.00;;;;;19.67;45.42;100497.63;4938216;28;47044;-70
2023/12/09 05:01:17;;;;;;;;;3.33;3.33;;;;;19.73;45.49;100504.06;4938466;28;45361;-70
2023/12/09 05:03:42;;;;;;;;;4.00;3.00;;;;;19.72;45.23;100497.94;4938197;28;45383;-69
2023/12/09 05:06:08;;;;;;;;;3.33;3.33;;;;;19.72;45.20;100487.38;4938136;28;45360;-69
2023/12/09 05:08:33;;;;;;;;;3.00;3.00;;;;;19.73;45.27;100481.13;4952555;28;47023;-68
2023/12/09 05:10:59;;;;;;;;;3.33;2.00;;;;;19.68;45.34;100459.72;4937970;28;45351;-69
2023/12/09 05:13:24;;;;;;;;;3.00;1.67;;;;;19.72;45.20;100453.06;4938162;28;45327;-70
2023/12/09 05:15:50;;;;;;;;;3.33;2.00;;;;;19.73;45.44;100451.25;4937743;28;51987;-70
2023/12/09 05:18:15;;;;;;;;;4.33;3.00;;;;;19.73;45.17;100438.88;4937929;28;45405;-70
2023/12/09 05:20:41;;;;;;;;;4.00;2.67;;;;;19.71;45.50;100426.88;4937920;28;45476;-69
2023/12/09 05:23:06;;;;;;;;;3.67;3.67;;;;;19.71;45.50;100425.06;4937822;28;45455;-69
2023/12/09 05:25:32;;;;;;;;;3.67;3.67;;;;;19.72;45.45;100433.78;4938147;28;45272;-69
2023/12/09 05:27:57;;;;;;;;;4.00;4.00;;;;;19.71;45.55;100403.09;4937910;28;46023;-70
2023/12/09 05:30:22;;;;;;;;;3.00;2.67;;;;;19.70;45.45;100404.09;4937843;28;45204;-69
2023/12/09 05:32:47;;;;;;;;;1.00;1.00;;;;;19.71;45.60;100397.81;4937048;28;54138;-69
2023/12/09 05:35:13;;;;;;;;;7.00;4.00;;;;;19.71;45.52;100382.81;4937415;28;58853;-70
2023/12/09 05:37:38;;;;;;;;;2.67;1.67;;;;;19.71;45.35;100380.19;4937343;28;46086;-70
2023/12/09 05:40:04;;;;;;;;;2.67;2.67;;;;;19.71;45.43;100364.34;4937719;28;45359;-69
2023/12/09 05:42:29;;;;;;;;;3.67;3.00;;;;;19.71;45.34;100374.91;4937829;28;45229;-69
2023/12/09 05:44:55;;;;;;;;;2.00;2.00;;;;;19.72;45.50;100360.69;4937653;28;45451;-69
2023/12/09 05:47:20;;;;;;;;;2.00;2.00;;;;;19.72;45.27;100357.25;4937690;28;45393;-69
2023/12/09 05:49:45;;;;;;;;;2.00;2.00;;;;;19.71;45.36;100355.59;4937280;28;45407;-73
2023/12/09 05:52:11;;;;;;;;;3.00;2.00;;;;;19.71;45.44;100345.88;4937731;28;45403;-70
2023/12/09 05:54:37;;;;;;;;;2.33;2.00;;;;;19.68;45.39;100324.28;4937532;28;45419;-69
2023/12/09 05:57:02;;;;;;;;;2.33;2.00;;;;;19.64;45.54;100305.34;4937342;28;46439;-70
2023/12/09 05:59:27;;;;;;;;;1.67;1.67;;;;;19.71;45.38;100321.28;4937371;28;45496;-69
2023/12/09 06:01:54;;;;;;;;;4.00;2.00;;;;;19.70;45.57;100309.91;4937563;28;45405;-69
2023/12/09 06:04:20;;;;;;;;;2.00;0.33;;;;;19.69;45.31;100300.34;4937266;28;45395;-70
2023/12/09 06:06:45;;;;;;;;;2.00;2.00;;;;;19.65;45.65;100285.06;4937549;28;46039;-70
2023/12/09 06:09:11;;;;;;;;;2.67;2.67;;;;;19.70;45.31;100291.44;4937377;28;45358;-70
2023/12/09 06:11:36;;;;;;;;;4.00;1.67;;;;;19.70;45.63;100293.25;4937551;28;45401;-70
2023/12/09 06:14:03;;;;;;;;;2.00;2.00;;;;;19.70;45.41;100290.59;4937233;28;45213;-68
2023/12/09 06:16:28;;;;;;;;;1.67;1.67;;;;;19.71;45.25;100284.34;4937383;28;47294;-70
2023/12/09 06:18:53;;;;;;;;;4.00;2.00;;;;;19.68;45.56;100277.59;4935615;28;45377;-70
2023/12/09 06:21:23;;;;;;;;;1.67;1.67;;;;;19.71;45.40;100269.31;4937474;28;45313;-70
2023/12/09 06:23:49;;;;;;;;;2.67;1.67;;;;;19.71;45.35;100271.97;4937356;28;45501;-69
2023/12/09 06:26:14;;;;;;;;;3.67;2.00;;;;;19.72;45.10;100278.06;4936951;28;46048;-70
2023/12/09 06:28:39;;;;;;;;;5.00;3.00;;;;;19.70;45.48;100259.75;4937133;28;45367;-69
2023/12/09 06:31:05;;;;;;;;;1.67;1.67;;;;;19.72;45.52;100259.59;4936598;28;59499;-69
2023/12/09 06:33:30;;;;;;;;;5.00;2.00;;;;;19.71;45.43;100228.91;4936738;28;45378;-69
2023/12/09 06:35:56;;;;;;;;;2.00;2.00;;;;;19.71;45.30;100232.38;4936746;28;55400;-69
2023/12/09 06:38:21;;;;;;;;;2.67;2.00;;;;;19.65;45.19;100195.34;4936980;28;45343;-69
2023/12/09 06:40:47;;;;;;;;;1.67;1.67;;;;;19.67;45.38;100212.59;4937091;28;45296;-69
2023/12/09 06:43:12;;;;;;;;;1.00;1.00;;;;;19.71;45.28;100195.41;4937474;28;45356;-69
2023/12/09 06:45:37;;;;;;;;;2.33;1.00;;;;;19.72;45.37;100204.16;4939646;28;60584;-68
2023/12/09 06:48:03;;;;;;;;;1.33;1.00;;;;;19.71;45.38;100190.13;4939856;28;45408;-68
2023/12/09 06:50:29;;;;;;;;;3.00;1.67;;;;;19.64;45.42;100162.84;4940492;28;45296;-70
2023/12/09 06:52:54;;;;;;;;;1.67;1.00;;;;;19.72;45.18;100165.38;4939890;28;47783;-70
2023/12/09 06:55:19;;;;;;;;;1.33;1.33;;;;;19.71;45.46;100155.00;4939957;28;46256;-70
2023/12/09 06:57:45;;;;;;;;;5.00;2.00;;;;;19.71;45.21;100157.63;4940149;28;45383;-70
2023/12/09 07:00:12;;;;;;;;;3.67;2.00;;;;;19.67;45.51;100114.16;4940108;28;45318;-70
2023/12/09 07:02:38;;;;;;;;;4.67;2.00;;;;;19.71;45.22;100128.59;4939479;28;45517;-70
2023/12/09 07:05:04;;;;;;;;;2.67;1.00;;;;;19.70;45.32;100106.66;4939748;28;46178;-69
2023/12/09 07:07:29;;;;;;;;;2.33;2.33;;;;;19.71;45.33;100094.28;4940064;28;45446;-70
2023/12/09 07:09:56;;;;;;;;;1.67;1.00;;;;;19.70;45.16;100088.19;4940009;28;45398;-70
2023/12/09 07:12:21;;;;;;;;;2.00;2.00;;;;;19.70;45.50;100076.81;4940082;28;45421;-70
2023/12/09 07:14:47;;;;;;;;;1.33;1.00;;;;;19.70;45.27;100060.97;4939688;28;47067;-70
2023/12/09 07:17:12;;;;;;;;;3.33;3.33;;;;;19.70;45.35;100056.53;4939080;28;57750;-69
2023/12/09 07:19:37;;;;;;;;;2.00;1.67;;;;;19.70;45.22;100050.41;4939843;28;45410;-70
2023/12/09 07:22:03;;;;;;;;;3.67;2.00;;;;;19.70;45.31;100043.31;4939583;28;49228;-70
2023/12/09 07:24:28;;;;;;;;;2.00;2.00;;;;;19.70;45.32;100013.47;4939671;28;46301;-69
2023/12/09 07:26:54;;;;;;;;;1.00;0.67;;;;;19.70;45.46;100013.47;4939804;28;45378;-70
2023/12/09 07:29:19;;;;;;;;;3.33;3.00;;;;;19.70;45.27;99995.00;4954469;28;47867;-69
2023/12/09 07:31:45;;;;;;;;;1.00;1.00;;;;;19.70;45.36;99987.91;4939375;28;45433;-70
2023/12/09 07:34:16;;;;;;;;;2.00;2.00;;;;;19.69;45.10;99983.66;4939334;28;46452;-68
2023/12/09 07:36:41;;;;;;;;;2.33;2.33;;;;;19.69;45.38;99974.91;4939537;28;45405;-70
2023/12/09 07:39:08;;;;;;;;;1.00;1.00;;;;;19.62;45.52;99977.47;4939568;28;45371;-70
2023/12/09 07:41:34;;;;;;;;;1.00;1.00;;;;;19.69;45.37;99965.16;4939604;28;45352;-70
2023/12/09 07:43:59;;;;;;;;;2.00;2.00;;;;;19.69;45.39;99959.06;4939180;28;46057;-68
2023/12/09 07:46:25;;;;;;;;;3.00;1.00;;;;;19.69;45.40;99946.69;4939141;28;45530;-70
2023/12/09 07:48:50;;;;;;;;;2.00;2.00;;;;;19.64;45.23;99930.59;4939276;28;46188;-68
2023/12/09 07:51:15;;;;;;;;;1.67;1.67;;;;;19.70;45.31;99939.56;4939414;28;45292;-68
2023/12/09 07:53:41;;;;;;;;;2.00;1.00;;;;;19.71;45.30;99941.22;4939112;28;50211;-69
2023/12/09 07:56:06;;;;;;;;;1.67;1.33;;;;;19.71;45.59;99933.31;4938126;28;63583;-68
2023/12/09 07:58:31;;;;;;;;;2.67;2.67;;;;;19.70;45.38;99924.56;4939377;28;45400;-68
2023/12/09 08:01:00;;;;;;;;;2.67;0.67;;;;;19.72;45.38;99921.75;4938472;28;57151;-70
2023/12/09 08:03:25;;;;;;;;;3.00;1.33;;;;;19.69;45.47;99901.00;4938940;28;47128;-70
2023/12/09 08:05:51;;;;;;;;;4.00;2.00;;;;;19.70;45.67;99918.47;4938920;28;45355;-70
2023/12/09 08:08:16;;;;;;;;;2.00;2.00;;;;;19.71;45.42;99931.50;4939198;28;45488;-69
2023/12/09 08:10:41;;;;;;;;;1.00;1.00;;;;;19.72;45.37;99905.91;4939193;28;45414;-69
2023/12/09 08:13:08;;;;;;;;;1.00;1.00;;;;;19.71;45.67;99893.72;4938991;28;45924;-69
2023/12/09 08:15:34;;;;;;;;;1.00;1.00;;;;;19.72;45.59;99887.44;4937402;28;45494;-70
2023/12/09 08:17:59;;;;;;;;;3.33;1.00;;;;;19.71;45.45;99876.06;4938965;28;45351;-69
2023/12/09 08:20:24;;;;;;;;;0.67;0.67;;;;;19.72;45.36;99871.59;4938953;28;46558;-70
2023/12/09 08:22:50;;;;;;;;;2.00;2.00;;;;;19.67;45.41;99856.31;4938625;28;46140;-69
2023/12/09 08:25:16;;;;;;;;;3.33;0.67;;;;;19.71;45.42;99862.03;4938859;28;45325;-70
2023/12/09 08:27:42;;;;;;;;;0.00;0.00;;;;;19.68;45.55;99851.84;4953905;28;45367;-70
2023/12/09 08:30:10;;;;;;;;;1.00;1.00;;;;;19.69;45.32;99842.94;4938536;28;45359;-69
2023/12/09 08:32:39;;;;;;;;;0.33;0.33;;;;;19.70;45.37;99839.28;4938561;28;46989;-70
2023/12/09 08:35:06;;;;;;;;;2.00;1.00;;;;;19.71;45.34;99823.28;4938649;28;45286;-70
2023/12/09 08:37:31;;;;;;;;;1.00;1.00;;;;;19.71;45.60;99828.56;4938748;28;45466;-69
2023/12/09 08:40:08;;;;;;;;;2.00;2.00;;;;;19.71;45.62;99811.91;4938521;28;45470;-68
2023/12/09 08:42:34;;;;;;;;;1.67;1.67;;;;;19.65;45.01;99796.84;4938616;28;46089;-69
2023/12/09 08:44:59;;;;;;;;;1.67;1.00;;;;;19.70;45.38;99800.53;4937540;28;59923;-70
2023/12/09 08:47:25;;;;;;;;;1.00;1.00;;;;;19.70;45.31;99797.06;4938074;28;50398;-69
2023/12/09 08:49:50;;;;;;;;;3.00;2.00;;;;;19.70;45.36;99778.59;4938514;28;45287;-69
2023/12/09 08:52:15;;;;;;;;;0.00;0.00;;;;;19.69;45.57;99774.34;4937935;28;60327;-69
2023/12/09 08:54:41;;;;;;;;;1.00;1.00;;;;;19.67;45.39;99760.53;4938091;28;49443;-70
2023/12/09 08:57:06;;;;;;;;;1.00;1.00;;;;;19.68;45.50;99762.13;4937277;28;45301;-70
2023/12/09 08:59:31;;;;;;;;;2.67;2.00;;;;;19.69;45.39;99763.78;4938004;28;45348;-69
2023/12/09 09:01:56;;;;;;;;;1.00;1.00;;;;;19.69;45.39;99754.03;4937971;28;52668;-69
2023/12/09 09:04:22;;;;;;;;;1.33;1.33;;;;;19.67;45.35;99750.75;4937673;28;50780;-70
2023/12/09 09:06:47;;;;;;;;;1.33;1.00;;;;;19.69;45.42;99735.56;4937573;28;45338;-70
2023/12/09 09:09:13;;;;;;;;;1.00;1.00;;;;;19.71;45.46;99745.94;4937785;28;50701;-70
2023/12/09 09:11:38;;;;;;;;;2.33;1.33;;;;;19.70;45.53;99721.34;4952117;28;69546;-69
2023/12/09 09:14:04;;;;;;;;;1.67;1.00;;;;;19.70;45.12;99724.00;4937441;28;54544;-69
2023/12/09 09:16:29;;;;;;;;;1.00;1.00;;;;;19.72;45.88;99731.72;4937929;28;45287;-70
2023/12/09 09:18:55;;;;;;;;;0.00;0.00;;;;;19.70;45.40;99724.00;4937972;28;45390;-70
2023/12/09 09:21:20;;;;;;;;;1.00;0.00;;;;;19.70;45.60;99721.34;4937558;28;59240;-70
2023/12/09 09:23:45;;;;;;;;;0.67;0.67;;;;;19.71;45.75;99709.81;4937791;28;47944;-69
2023/12/09 09:26:11;;;;;;;;;1.00;1.00;;;;;19.72;45.41;99711.41;4937392;28;63042;-70
2023/12/09 09:28:36;;;;;;;;;0.33;0.33;;;;;19.70;45.69;99716.06;4937699;28;45351;-69
2023/12/09 09:31:01;;;;;;;;;1.00;1.00;;;;;19.72;45.56;99721.19;4937544;28;55493;-69
2023/12/09 09:33:26;;;;;;;;;0.67;0.67;;;;;19.65;45.49;99701.84;4937966;28;45547;-70
2023/12/09 09:35:54;;;;;;;;;0.33;0.33;;;;;19.68;45.49;99702.25;4937833;28;45391;-69
2023/12/09 09:38:19;;;;;;;;;2.00;2.00;;;;;19.71;45.48;99693.97;4937918;28;45507;-69
2023/12/09 09:40:44;;;;;;;;;0.00;0.00;;;;;19.64;45.56;99682.56;4937548;28;49626;-70
2023/12/09 09:43:20;;;;;;;;;1.33;1.33;;;;;19.72;45.40;99686.88;4937362;28;45363;-69
2023/12/09 09:45:47;;;;;;;;;3.00;1.00;;;;;19.68;45.38;99683.78;4937910;28;45469;-70
2023/12/09 09:48:16;;;;;;;;;3.00;1.00;;;;;19.71;45.72;99683.41;4937548;28;45275;-70
2023/12/09 09:50:44;;;;;;;;;1.00;1.00;;;;;19.70;45.62;99671.22;4937442;28;47057;-69
2023/12/09 09:53:12;;;;;;;;;1.00;1.00;;;;;19.70;45.61;99667.75;4937465;28;45473;-69
2023/12/09 09:55:41;;;;;;;;;2.00;2.00;;;;;19.68;45.55;99670.59;4937323;28;45533;-69
2023/12/09 09:58:07;;;;;;;;;0.67;0.67;;;;;19.71;45.65;99658.84;4937098;28;45376;-68
2023/12/09 10:00:32;;;;;;;;;2.00;1.00;;;;;19.69;45.68;99640.56;4935952;28;47488;-71
2023/12/09 10:02:57;;;;;;;;;1.00;1.00;;;;;19.72;45.52;99647.28;4937148;28;45343;-69
2023/12/09 10:05:23;;;;;;;;;1.00;1.00;;;;;19.71;45.76;99651.75;4937412;28;45322;-70
2023/12/09 10:07:48;;;;;;;;;0.67;0.67;;;;;19.71;45.46;99649.09;4937499;28;45359;-70
2023/12/09 10:10:16;;;;;;;;;1.00;0.67;;;;;19.71;45.47;99649.09;4937363;28;46067;-70
2023/12/09 10:12:42;;;;;;;;;1.33;0.00;;;;;19.72;45.54;99652.56;4936981;28;45375;-69
2023/12/09 10:15:09;;;;;;;;;0.67;0.67;;;;;19.73;45.58;99648.91;4937323;28;45196;-70
2023/12/09 10:17:34;;;;;;;;;0.00;0.00;;;;;19.73;45.59;99635.69;4937380;28;45405;-69
2023/12/09 10:20:00;;;;;;;;;2.00;2.00;;;;;19.72;45.53;99636.72;4940079;28;45926;-68
2023/12/09 10:22:26;;;;;;;;;2.00;1.00;;;;;19.73;45.52;99646.25;4955578;28;45327;-69
2023/12/09 10:24:53;;;;;;;;;0.33;0.00;;;;;19.72;45.67;99634.09;4940741;28;45351;-69
2023/12/09 10:27:20;;;;;;;;;1.00;1.00;;;;;19.71;45.64;99627.16;4940202;28;45450;-68
2023/12/09 10:29:45;;;;;;;;;1.00;1.00;;;;;19.73;45.69;99635.69;4940576;28;46003;-70
2023/12/09 10:32:12;;;;;;;;;1.33;0.00;;;;;19.65;45.59;99618.19;4940279;28;45395;-69
2023/12/09 10:34:40;;;;;;;;;1.67;0.00;;;;;19.71;45.60;99619.25;4940597;28;45428;-69
2023/12/09 10:37:09;;;;;;;;;1.00;1.00;;;;;19.72;45.58;99620.91;4940734;28;45299;-69
2023/12/09 10:39:35;;;;;;;;;0.00;0.00;;;;;19.65;45.73;99615.56;4940277;28;45307;-69
2023/12/09 10:42:03;;;;;;;;;0.67;0.67;;;;;19.62;45.49;99602.78;4940018;28;45342;-69
2023/12/09 10:44:30;;;;;;;;;2.00;1.00;;;;;19.69;45.93;99590.44;4940400;28;45336;-69
2023/12/09 10:46:55;;;;;;;;;0.00;0.00;;;;;19.71;46.08;99588.41;4940257;28;45513;-69
2023/12/09 10:49:20;;;;;;;;;1.00;0.33;;;;;19.70;45.68;99591.22;4940194;28;46056;-69
2023/12/09 10:51:46;;;;;;;;;0.00;0.00;;;;;19.71;45.69;99588.41;4940318;28;45303;-69
2023/12/09 10:54:11;;;;;;;;;1.00;0.00;;;;;19.68;45.76;99587.97;4940262;28;45494;-69
2023/12/09 10:56:37;;;;;;;;;1.00;1.00;;;;;19.72;45.62;99591.88;4938660;28;45439;-70
2023/12/09 10:59:04;;;;;;;;;1.00;1.00;;;;;19.72;45.83;99587.38;4939958;28;46119;-72
2023/12/09 11:01:30;;;;;;;;;2.00;1.67;;;;;19.48;45.67;99549.94;4940055;28;45414;-72
2023/12/09 11:03:56;;;;;;;;;1.33;0.00;;;;;19.68;46.63;99582.69;4939935;28;45409;-75
2023/12/09 11:06:24;;;;;;;;;0.00;0.00;;;;;19.48;47.46;99573.66;4940063;28;45374;-74
2023/12/09 11:08:50;;;;;;;;;0.00;0.00;;;;;19.23;47.67;99552.22;4939586;28;45325;-73
2023/12/09 11:11:15;;;;;;;;;1.00;0.00;;;;;19.07;48.64;99562.03;4939893;28;45442;-72
2023/12/09 11:13:46;;;;;;;;;0.00;0.00;;;;;18.86;49.43;99561.03;4939882;28;45441;-73
2023/12/09 11:16:18;;;;;;;;;0.00;0.00;;;;;18.77;50.02;99562.16;4939534;28;45509;-73
2023/12/09 11:18:53;;;;;;;;;0.00;0.00;;;;;18.75;50.24;99551.81;4939745;28;46249;-72
2023/12/09 11:21:23;;;;;;;;;0.00;0.00;;;;;18.83;50.05;99550.88;4939678;28;45326;-72
2023/12/09 11:23:56;;;;;;;;;1.00;1.00;;;;;18.82;49.87;99536.06;4939495;28;45386;-71